sensor_id;sensor_type;location;lat;lon;timestamp;pressure;altitude;pressure_sealevel;temperature;humidity
36190;BME280;22232;50.914;13.858;2022-11-27T00:01:25;99156.75;;;4.12;100.00
36190;BME280;22232;50.914;13.858;2022-11-27T00:03:53;99156.75;;;4.12;100.00
36190;BME280;22232;50.914;13.858;2022-11-27T00:06:23;99148.03;;;4.11;100.00
36190;BME280;22232;50.914;13.858;2022-11-27T00:08:52;99152.47;;;4.11;100.00
36190;BME280;22232;50.914;13.858;2022-11-27T00:11:21;99148.53;;;4.15;100.00
36190;BME280;22232;50.914;13.858;2022-11-27T00:13:50;99146.19;;;4.12;100.00
36190;BME280;22232;50.914;13.858;2022-11-27T00:16:19;99150.66;;;4.11;100.00
36190;BME280;22232;50.914;13.858;2022-11-27T00:18:47;99149.47;;;4.06;100.00
36190;BME280;22232;50.914;13.858;2022-11-27T00:21:21;99142.53;;;4.05;100.00
36190;BME280;22232;50.914;13.858;2022-11-27T00:23:51;99139.91;;;4.05;100.00
36190;BME280;22232;50.914;13.858;2022-11-27T00:26:20;99136.28;;;4.06;100.00
36190;BME280;22232;50.914;13.858;2022-11-27T00:28:48;99129.03;;;4.08;100.00
36190;BME280;22232;50.914;13.858;2022-11-27T00:31:19;99130.81;;;4.07;100.00
36190;BME280;22232;50.914;13.858;2022-11-27T00:33:47;99129.84;;;4.08;100.00
36190;BME280;22232;50.914;13.858;2022-11-27T00:36:15;99132.19;;;4.11;100.00
36190;BME280;22232;50.914;13.858;2022-11-27T00:38:42;99129.22;;;4.14;100.00
36190;BME280;22232;50.914;13.858;2022-11-27T00:41:14;99126.72;;;4.13;100.00
36190;BME280;22232;50.914;13.858;2022-11-27T00:43:42;99127.53;;;4.13;100.00
36190;BME280;22232;50.914;13.858;2022-11-27T00:46:15;99119.94;;;4.10;100.00
36190;BME280;22232;50.914;13.858;2022-11-27T00:48:44;99131.34;;;4.11;100.00
36190;BME280;22232;50.914;13.858;2022-11-27T00:51:15;99130.69;;;4.09;100.00
36190;BME280;22232;50.914;13.858;2022-11-27T00:53:43;99127.22;;;4.08;100.00
36190;BME280;22232;50.914;13.858;2022-11-27T00:56:26;99128.34;;;4.06;100.00
36190;BME280;22232;50.914;13.858;2022-11-27T00:58:54;99123.53;;;4.01;100.00
36190;BME280;22232;50.914;13.858;2022-11-27T01:01:33;99121.94;;;4.08;100.00
36190;BME280;22232;50.914;13.858;2022-11-27T01:04:02;99125.41;;;4.09;100.00
36190;BME280;22232;50.914;13.858;2022-11-27T01:06:30;99120.63;;;4.12;100.00
36190;BME280;22232;50.914;13.858;2022-11-27T01:08:58;99116.97;;;4.13;100.00
36190;BME280;22232;50.914;13.858;2022-11-27T01:11:29;99115.19;;;4.14;100.00
36190;BME280;22232;50.914;13.858;2022-11-27T01:14:00;99113.38;;;4.14;100.00
36190;BME280;22232;50.914;13.858;2022-11-27T01:16:29;99108.56;;;4.10;100.00
36190;BME280;22232;50.914;13.858;2022-11-27T01:18:59;99108.56;;;4.10;100.00
36190;BME280;22232;50.914;13.858;2022-11-27T01:21:29;99091.75;;;4.11;100.00
36190;BME280;22232;50.914;13.858;2022-11-27T01:23:57;99093.72;;;4.09;100.00
36190;BME280;22232;50.914;13.858;2022-11-27T01:26:26;99093.19;;;4.05;100.00
36190;BME280;22232;50.914;13.858;2022-11-27T01:28:54;99088.06;;;4.04;100.00
36190;BME280;22232;50.914;13.858;2022-11-27T01:31:26;99083.41;;;3.98;100.00
36190;BME280;22232;50.914;13.858;2022-11-27T01:33:56;99078.00;;;3.99;100.00
36190;BME280;22232;50.914;13.858;2022-11-27T01:36:24;99079.94;;;3.97;100.00
36190;BME280;22232;50.914;13.858;2022-11-27T01:38:53;99070.06;;;3.99;100.00
36190;BME280;22232;50.914;13.858;2022-11-27T01:41:27;99065.56;;;3.91;100.00
36190;BME280;22232;50.914;13.858;2022-11-27T01:51:44;99058.97;;;3.61;100.00
36190;BME280;22232;50.914;13.858;2022-11-27T01:54:13;99056.81;;;3.57;100.00
36190;BME280;22232;50.914;13.858;2022-11-27T01:56:44;99044.88;;;3.53;100.00
36190;BME280;22232;50.914;13.858;2022-11-27T01:59:12;99051.47;;;3.49;100.00
36190;BME280;22232;50.914;13.858;2022-11-27T02:01:40;99051.94;;;3.44;100.00
36190;BME280;22232;50.914;13.858;2022-11-27T02:04:08;99049.69;;;3.31;100.00
36190;BME280;22232;50.914;13.858;2022-11-27T02:06:36;99051.66;;;3.29;100.00
36190;BME280;22232;50.914;13.858;2022-11-27T02:09:03;99045.03;;;3.25;100.00
36190;BME280;22232;50.914;13.858;2022-11-27T02:11:53;99038.72;;;3.18;100.00
36190;BME280;22232;50.914;13.858;2022-11-27T02:25:12;99036.19;;;3.08;100.00
36190;BME280;22232;50.914;13.858;2022-11-27T02:30:33;99030.22;;;3.06;100.00
36190;BME280;22232;50.914;13.858;2022-11-27T02:33:05;99032.66;;;2.99;100.00
36190;BME280;22232;50.914;13.858;2022-11-27T02:35:43;99023.00;;;2.90;100.00
36190;BME280;22232;50.914;13.858;2022-11-27T02:38:17;99021.28;;;2.81;100.00
36190;BME280;22232;50.914;13.858;2022-11-27T02:43:27;99014.69;;;3.21;100.00
36190;BME280;22232;50.914;13.858;2022-11-27T02:45:58;99011.63;;;3.08;100.00
36190;BME280;22232;50.914;13.858;2022-11-27T02:48:32;99009.84;;;2.90;100.00
36190;BME280;22232;50.914;13.858;2022-11-27T02:51:01;99014.06;;;2.83;100.00
36190;BME280;22232;50.914;13.858;2022-11-27T02:53:32;99018.44;;;2.74;100.00
36190;BME280;22232;50.914;13.858;2022-11-27T02:56:07;99014.00;;;2.75;100.00
36190;BME280;22232;50.914;13.858;2022-11-27T02:58:36;99018.34;;;2.66;100.00
36190;BME280;22232;50.914;13.858;2022-11-27T03:01:05;99021.72;;;2.59;100.00
36190;BME280;22232;50.914;13.858;2022-11-27T03:03:37;99019.84;;;2.51;100.00
36190;BME280;22232;50.914;13.858;2022-11-27T03:06:10;99015.41;;;2.51;100.00
36190;BME280;22232;50.914;13.858;2022-11-27T03:08:54;99018.72;;;2.53;100.00
36190;BME280;22232;50.914;13.858;2022-11-27T03:11:24;99021.34;;;2.53;100.00
36190;BME280;22232;50.914;13.858;2022-11-27T03:13:55;99020.00;;;2.67;100.00
36190;BME280;22232;50.914;13.858;2022-11-27T03:19:46;99021.44;;;2.62;100.00
36190;BME280;22232;50.914;13.858;2022-11-27T03:22:15;99020.16;;;2.66;100.00
36190;BME280;22232;50.914;13.858;2022-11-27T03:24:43;99025.66;;;2.72;100.00
36190;BME280;22232;50.914;13.858;2022-11-27T03:27:17;99032.44;;;2.75;100.00
36190;BME280;22232;50.914;13.858;2022-11-27T03:29:49;99034.06;;;2.76;100.00
36190;BME280;22232;50.914;13.858;2022-11-27T03:32:19;99030.31;;;2.79;100.00
36190;BME280;22232;50.914;13.858;2022-11-27T03:34:47;99029.09;;;2.73;100.00
36190;BME280;22232;50.914;13.858;2022-11-27T03:37:15;99036.06;;;2.74;100.00
36190;BME280;22232;50.914;13.858;2022-11-27T03:39:42;99035.19;;;2.73;100.00
36190;BME280;22232;50.914;13.858;2022-11-27T03:42:13;99031.75;;;2.73;100.00
36190;BME280;22232;50.914;13.858;2022-11-27T03:53:05;99019.47;;;2.46;100.00
36190;BME280;22232;50.914;13.858;2022-11-27T03:58:09;99014.31;;;2.26;100.00
36190;BME280;22232;50.914;13.858;2022-11-27T04:00:40;99010.47;;;2.21;100.00
36190;BME280;22232;50.914;13.858;2022-11-27T04:03:12;99011.59;;;2.18;100.00
36190;BME280;22232;50.914;13.858;2022-11-27T04:05:39;99009.41;;;2.14;100.00
36190;BME280;22232;50.914;13.858;2022-11-27T04:08:07;99008.03;;;2.10;100.00
36190;BME280;22232;50.914;13.858;2022-11-27T04:10:34;98999.78;;;2.04;100.00
36190;BME280;22232;50.914;13.858;2022-11-27T04:13:02;99003.00;;;1.98;100.00
36190;BME280;22232;50.914;13.858;2022-11-27T04:15:29;98993.06;;;1.92;100.00
36190;BME280;22232;50.914;13.858;2022-11-27T04:17:57;98998.44;;;1.91;100.00
36190;BME280;22232;50.914;13.858;2022-11-27T04:20:25;98992.78;;;1.86;100.00
36190;BME280;22232;50.914;13.858;2022-11-27T04:22:52;99000.44;;;1.79;100.00
36190;BME280;22232;50.914;13.858;2022-11-27T04:25:21;98997.44;;;1.74;100.00
36190;BME280;22232;50.914;13.858;2022-11-27T04:27:49;98997.84;;;1.69;100.00
36190;BME280;22232;50.914;13.858;2022-11-27T04:30:17;98998.97;;;1.67;100.00
36190;BME280;22232;50.914;13.858;2022-11-27T04:32:44;98993.34;;;1.62;100.00
36190;BME280;22232;50.914;13.858;2022-11-27T04:35:12;99003.16;;;1.59;100.00
36190;BME280;22232;50.914;13.858;2022-11-27T04:37:40;99010.50;;;1.56;100.00
36190;BME280;22232;50.914;13.858;2022-11-27T04:40:08;99012.59;;;1.52;100.00
36190;BME280;22232;50.914;13.858;2022-11-27T04:42:35;99006.78;;;1.49;100.00
36190;BME280;22232;50.914;13.858;2022-11-27T04:45:03;99000.97;;;1.45;100.00
36190;BME280;22232;50.914;13.858;2022-11-27T04:47:31;99005.56;;;1.43;100.00
36190;BME280;22232;50.914;13.858;2022-11-27T04:49:59;99008.88;;;1.45;100.00
36190;BME280;22232;50.914;13.858;2022-11-27T04:52:26;99013.03;;;1.48;100.00
36190;BME280;22232;50.914;13.858;2022-11-27T04:54:53;99005.81;;;1.50;100.00
36190;BME280;22232;50.914;13.858;2022-11-27T04:57:26;99008.84;;;1.55;100.00
36190;BME280;22232;50.914;13.858;2022-11-27T04:59:54;99007.72;;;1.57;100.00
36190;BME280;22232;50.914;13.858;2022-11-27T05:02:22;99007.72;;;1.57;100.00
36190;BME280;22232;50.914;13.858;2022-11-27T05:04:49;99004.13;;;1.58;100.00
36190;BME280;22232;50.914;13.858;2022-11-27T05:07:17;98998.72;;;1.60;100.00
36190;BME280;22232;50.914;13.858;2022-11-27T05:09:44;98992.94;;;1.56;100.00
36190;BME280;22232;50.914;13.858;2022-11-27T05:12:12;98998.31;;;1.55;100.00
36190;BME280;22232;50.914;13.858;2022-11-27T05:14:39;99007.34;;;1.52;100.00
36190;BME280;22232;50.914;13.858;2022-11-27T05:17:08;99001.38;;;1.50;100.00
36190;BME280;22232;50.914;13.858;2022-11-27T05:19:36;98996.13;;;1.50;100.00
36190;BME280;22232;50.914;13.858;2022-11-27T05:22:03;98989.03;;;1.60;100.00
36190;BME280;22232;50.914;13.858;2022-11-27T05:24:32;99003.00;;;1.61;100.00
36190;BME280;22232;50.914;13.858;2022-11-27T05:26:59;99016.59;;;1.56;100.00
36190;BME280;22232;50.914;13.858;2022-11-27T05:29:28;99008.72;;;1.56;100.00
36190;BME280;22232;50.914;13.858;2022-11-27T05:31:56;99006.19;;;1.55;100.00
36190;BME280;22232;50.914;13.858;2022-11-27T05:34:23;99009.97;;;1.52;100.00
36190;BME280;22232;50.914;13.858;2022-11-27T05:36:51;99011.75;;;1.52;100.00
36190;BME280;22232;50.914;13.858;2022-11-27T05:39:18;99016.88;;;1.53;100.00
36190;BME280;22232;50.914;13.858;2022-11-27T05:41:46;99020.63;;;1.51;100.00
36190;BME280;22232;50.914;13.858;2022-11-27T05:44:14;99026.03;;;1.49;100.00
36190;BME280;22232;50.914;13.858;2022-11-27T05:46:41;99032.41;;;1.47;100.00
36190;BME280;22232;50.914;13.858;2022-11-27T05:49:13;99021.44;;;1.51;100.00
36190;BME280;22232;50.914;13.858;2022-11-27T05:51:42;99019.91;;;1.58;100.00
36190;BME280;22232;50.914;13.858;2022-11-27T05:54:17;99022.25;;;1.62;100.00
36190;BME280;22232;50.914;13.858;2022-11-27T05:56:44;99016.44;;;1.68;100.00
36190;BME280;22232;50.914;13.858;2022-11-27T05:59:13;99007.66;;;1.77;100.00
36190;BME280;22232;50.914;13.858;2022-11-27T06:01:41;99008.72;;;1.84;100.00
36190;BME280;22232;50.914;13.858;2022-11-27T06:04:08;99012.34;;;1.83;100.00
36190;BME280;22232;50.914;13.858;2022-11-27T06:06:36;99019.38;;;1.82;100.00
36190;BME280;22232;50.914;13.858;2022-11-27T06:09:03;99024.28;;;1.77;100.00
36190;BME280;22232;50.914;13.858;2022-11-27T06:11:39;99016.81;;;1.73;100.00
36190;BME280;22232;50.914;13.858;2022-11-27T06:14:08;99010.47;;;1.66;100.00
36190;BME280;22232;50.914;13.858;2022-11-27T06:16:36;99005.69;;;1.79;100.00
36190;BME280;22232;50.914;13.858;2022-11-27T06:19:04;99000.16;;;1.82;100.00
36190;BME280;22232;50.914;13.858;2022-11-27T06:21:32;99007.47;;;1.88;100.00
36190;BME280;22232;50.914;13.858;2022-11-27T06:23:59;99003.47;;;1.84;100.00
36190;BME280;22232;50.914;13.858;2022-11-27T06:26:29;98998.75;;;1.88;100.00
36190;BME280;22232;50.914;13.858;2022-11-27T06:28:58;99001.19;;;1.71;100.00
36190;BME280;22232;50.914;13.858;2022-11-27T06:31:29;99005.09;;;1.57;100.00
36190;BME280;22232;50.914;13.858;2022-11-27T06:33:57;99001.06;;;1.63;100.00
36190;BME280;22232;50.914;13.858;2022-11-27T06:36:33;98995.69;;;1.55;100.00
36190;BME280;22232;50.914;13.858;2022-11-27T06:39:03;98988.41;;;1.39;100.00
36190;BME280;22232;50.914;13.858;2022-11-27T06:41:31;98989.41;;;1.38;100.00
36190;BME280;22232;50.914;13.858;2022-11-27T06:44:00;98994.66;;;1.38;100.00
36190;BME280;22232;50.914;13.858;2022-11-27T06:46:28;98999.22;;;1.36;100.00
36190;BME280;22232;50.914;13.858;2022-11-27T06:48:57;98986.88;;;1.36;100.00
36190;BME280;22232;50.914;13.858;2022-11-27T06:51:27;98986.88;;;1.36;100.00
36190;BME280;22232;50.914;13.858;2022-11-27T06:53:55;98987.75;;;1.37;100.00
36190;BME280;22232;50.914;13.858;2022-11-27T06:56:25;98982.03;;;1.42;100.00
36190;BME280;22232;50.914;13.858;2022-11-27T06:58:54;98978.09;;;1.65;100.00
36190;BME280;22232;50.914;13.858;2022-11-27T07:01:24;98970.72;;;1.96;100.00
36190;BME280;22232;50.914;13.858;2022-11-27T07:03:52;98971.09;;;2.29;100.00
36190;BME280;22232;50.914;13.858;2022-11-27T07:06:21;98964.69;;;2.67;100.00
36190;BME280;22232;50.914;13.858;2022-11-27T07:08:49;98958.16;;;2.97;100.00
36190;BME280;22232;50.914;13.858;2022-11-27T07:11:19;98959.78;;;3.16;100.00
36190;BME280;22232;50.914;13.858;2022-11-27T07:13:48;98957.44;;;3.39;100.00
36190;BME280;22232;50.914;13.858;2022-11-27T07:16:17;98952.78;;;3.59;100.00
36190;BME280;22232;50.914;13.858;2022-11-27T07:18:47;98958.31;;;3.82;100.00
36190;BME280;22232;50.914;13.858;2022-11-27T07:21:15;98946.00;;;3.99;100.00
36190;BME280;22232;50.914;13.858;2022-11-27T07:23:43;98947.81;;;3.99;100.00
36190;BME280;22232;50.914;13.858;2022-11-27T07:26:13;98952.25;;;3.98;100.00
36190;BME280;22232;50.914;13.858;2022-11-27T07:28:41;98946.34;;;4.12;100.00
36190;BME280;22232;50.914;13.858;2022-11-27T07:31:14;98952.69;;;4.36;100.00
36190;BME280;22232;50.914;13.858;2022-11-27T07:33:43;98955.19;;;4.62;100.00
36190;BME280;22232;50.914;13.858;2022-11-27T07:36:14;98952.53;;;4.87;100.00
36190;BME280;22232;50.914;13.858;2022-11-27T07:38:42;98959.13;;;5.15;100.00
36190;BME280;22232;50.914;13.858;2022-11-27T07:41:11;98961.56;;;5.41;100.00
36190;BME280;22232;50.914;13.858;2022-11-27T07:43:40;98951.09;;;5.56;100.00
36190;BME280;22232;50.914;13.858;2022-11-27T07:46:14;98949.13;;;5.58;100.00
36190;BME280;22232;50.914;13.858;2022-11-27T07:48:42;98957.72;;;5.60;100.00
36190;BME280;22232;50.914;13.858;2022-11-27T07:51:11;98953.75;;;5.56;100.00
36190;BME280;22232;50.914;13.858;2022-11-27T07:53:40;98955.72;;;5.62;100.00
36190;BME280;22232;50.914;13.858;2022-11-27T07:56:10;98953.72;;;5.64;100.00
36190;BME280;22232;50.914;13.858;2022-11-27T07:58:38;98946.22;;;5.28;100.00
36190;BME280;22232;50.914;13.858;2022-11-27T08:01:08;98938.78;;;5.24;100.00
36190;BME280;22232;50.914;13.858;2022-11-27T08:03:37;98922.41;;;5.28;100.00
36190;BME280;22232;50.914;13.858;2022-11-27T08:06:13;98921.44;;;5.21;100.00
36190;BME280;22232;50.914;13.858;2022-11-27T08:08:42;98922.47;;;5.04;100.00
36190;BME280;22232;50.914;13.858;2022-11-27T08:11:21;98914.81;;;5.25;100.00
36190;BME280;22232;50.914;13.858;2022-11-27T08:13:49;98908.47;;;5.43;100.00
36190;BME280;22232;50.914;13.858;2022-11-27T08:16:16;98903.94;;;5.60;100.00
36190;BME280;22232;50.914;13.858;2022-11-27T08:18:44;98906.44;;;5.53;100.00
36190;BME280;22232;50.914;13.858;2022-11-27T08:21:12;98909.63;;;5.48;100.00
36190;BME280;22232;50.914;13.858;2022-11-27T08:23:39;98903.69;;;5.78;100.00
36190;BME280;22232;50.914;13.858;2022-11-27T08:26:08;98894.72;;;5.87;100.00
36190;BME280;22232;50.914;13.858;2022-11-27T08:28:36;98899.84;;;5.96;100.00
36190;BME280;22232;50.914;13.858;2022-11-27T08:31:05;98892.56;;;5.90;100.00
36190;BME280;22232;50.914;13.858;2022-11-27T08:33:34;98898.38;;;5.86;100.00
36190;BME280;22232;50.914;13.858;2022-11-27T08:36:03;98896.41;;;5.80;100.00
36190;BME280;22232;50.914;13.858;2022-11-27T08:38:31;98898.13;;;5.72;100.00
36190;BME280;22232;50.914;13.858;2022-11-27T08:41:00;98894.47;;;5.73;100.00
36190;BME280;22232;50.914;13.858;2022-11-27T08:43:29;98894.47;;;5.73;100.00
36190;BME280;22232;50.914;13.858;2022-11-27T08:45:57;98894.44;;;5.82;100.00
36190;BME280;22232;50.914;13.858;2022-11-27T08:48:25;98902.53;;;5.80;100.00
36190;BME280;22232;50.914;13.858;2022-11-27T08:50:52;98897.94;;;5.74;100.00
36190;BME280;22232;50.914;13.858;2022-11-27T08:53:20;98897.09;;;5.82;100.00
36190;BME280;22232;50.914;13.858;2022-11-27T08:55:48;98903.66;;;5.94;100.00
36190;BME280;22232;50.914;13.858;2022-11-27T08:58:15;98903.13;;;5.98;100.00
36190;BME280;22232;50.914;13.858;2022-11-27T09:00:43;98900.25;;;6.08;100.00
36190;BME280;22232;50.914;13.858;2022-11-27T09:03:11;98904.38;;;6.11;100.00
36190;BME280;22232;50.914;13.858;2022-11-27T09:05:42;98900.91;;;6.10;100.00
36190;BME280;22232;50.914;13.858;2022-11-27T09:08:10;98902.19;;;6.14;100.00
36190;BME280;22232;50.914;13.858;2022-11-27T09:10:42;98905.03;;;6.13;100.00
36190;BME280;22232;50.914;13.858;2022-11-27T09:13:10;98905.91;;;6.05;100.00
36190;BME280;22232;50.914;13.858;2022-11-27T09:15:37;98902.84;;;6.16;100.00
36190;BME280;22232;50.914;13.858;2022-11-27T09:18:05;98898.38;;;6.17;100.00
36190;BME280;22232;50.914;13.858;2022-11-27T09:20:32;98898.09;;;6.12;100.00
36190;BME280;22232;50.914;13.858;2022-11-27T09:23:00;98892.69;;;6.28;100.00
36190;BME280;22232;50.914;13.858;2022-11-27T09:25:28;98894.09;;;6.39;100.00
36190;BME280;22232;50.914;13.858;2022-11-27T09:27:56;98888.94;;;6.46;100.00
36190;BME280;22232;50.914;13.858;2022-11-27T09:30:23;98880.00;;;6.38;100.00
36190;BME280;22232;50.914;13.858;2022-11-27T09:32:51;98879.25;;;6.53;100.00
36190;BME280;22232;50.914;13.858;2022-11-27T09:35:18;98876.75;;;6.51;100.00
36190;BME280;22232;50.914;13.858;2022-11-27T09:37:46;98877.25;;;6.32;100.00
36190;BME280;22232;50.914;13.858;2022-11-27T09:40:14;98866.75;;;6.38;100.00
36190;BME280;22232;50.914;13.858;2022-11-27T09:42:52;98864.41;;;6.43;100.00
36190;BME280;22232;50.914;13.858;2022-11-27T09:45:22;98863.13;;;6.39;100.00
36190;BME280;22232;50.914;13.858;2022-11-27T09:48:08;98860.75;;;6.44;100.00
36190;BME280;22232;50.914;13.858;2022-11-27T09:50:42;98853.09;;;6.50;100.00
36190;BME280;22232;50.914;13.858;2022-11-27T09:53:29;98837.66;;;6.53;100.00
36190;BME280;22232;50.914;13.858;2022-11-27T09:56:02;98830.56;;;6.69;100.00
36190;BME280;22232;50.914;13.858;2022-11-27T09:58:42;98826.56;;;6.87;100.00
36190;BME280;22232;50.914;13.858;2022-11-27T10:01:14;98822.34;;;6.93;100.00
36190;BME280;22232;50.914;13.858;2022-11-27T10:03:44;98824.06;;;6.71;100.00
36190;BME280;22232;50.914;13.858;2022-11-27T10:09:31;98815.06;;;6.95;100.00
36190;BME280;22232;50.914;13.858;2022-11-27T10:12:16;98808.13;;;6.94;100.00
36190;BME280;22232;50.914;13.858;2022-11-27T10:17:48;98800.59;;;6.98;100.00
36190;BME280;22232;50.914;13.858;2022-11-27T10:25:50;98795.47;;;6.81;100.00
36190;BME280;22232;50.914;13.858;2022-11-27T10:28:56;98791.63;;;6.84;100.00
36190;BME280;22232;50.914;13.858;2022-11-27T10:31:44;98795.47;;;6.96;100.00
36190;BME280;22232;50.914;13.858;2022-11-27T10:34:37;98788.44;;;6.88;100.00
36190;BME280;22232;50.914;13.858;2022-11-27T10:37:14;98780.94;;;6.92;100.00
36190;BME280;22232;50.914;13.858;2022-11-27T10:39:50;98774.69;;;7.00;100.00
36190;BME280;22232;50.914;13.858;2022-11-27T10:42:36;98776.81;;;7.19;100.00
36190;BME280;22232;50.914;13.858;2022-11-27T10:45:51;98776.44;;;7.22;100.00
36190;BME280;22232;50.914;13.858;2022-11-27T10:48:19;98776.22;;;7.24;100.00
36190;BME280;22232;50.914;13.858;2022-11-27T10:50:47;98772.22;;;7.28;100.00
36190;BME280;22232;50.914;13.858;2022-11-27T10:53:34;98763.25;;;7.29;100.00
36190;BME280;22232;50.914;13.858;2022-11-27T10:59:40;98762.94;;;7.39;100.00
36190;BME280;22232;50.914;13.858;2022-11-27T11:01:44;98752.13;;;7.19;100.00
36190;BME280;22232;50.914;13.858;2022-11-27T11:04:19;98765.91;;;7.14;100.00
36190;BME280;22232;50.914;13.858;2022-11-27T11:07:26;98760.63;;;7.14;100.00
36190;BME280;22232;50.914;13.858;2022-11-27T11:09:54;98749.03;;;7.00;100.00
36190;BME280;22232;50.914;13.858;2022-11-27T11:12:22;98750.66;;;7.01;100.00
36190;BME280;22232;50.914;13.858;2022-11-27T11:14:53;98744.91;;;6.98;100.00
36190;BME280;22232;50.914;13.858;2022-11-27T11:17:26;98747.06;;;7.09;100.00
36190;BME280;22232;50.914;13.858;2022-11-27T11:19:53;98744.09;;;6.97;100.00
36190;BME280;22232;50.914;13.858;2022-11-27T11:22:21;98753.03;;;6.96;100.00
36190;BME280;22232;50.914;13.858;2022-11-27T11:24:52;98744.91;;;6.98;100.00
36190;BME280;22232;50.914;13.858;2022-11-27T11:27:30;98741.75;;;7.09;100.00
36190;BME280;22232;50.914;13.858;2022-11-27T11:30:04;98741.75;;;7.09;100.00
36190;BME280;22232;50.914;13.858;2022-11-27T11:32:36;98740.94;;;7.08;100.00
36190;BME280;22232;50.914;13.858;2022-11-27T11:35:22;98749.41;;;6.97;100.00
36190;BME280;22232;50.914;13.858;2022-11-27T11:37:51;98751.31;;;6.88;100.00
36190;BME280;22232;50.914;13.858;2022-11-27T11:40:23;98752.06;;;6.97;100.00
36190;BME280;22232;50.914;13.858;2022-11-27T11:42:54;98759.16;;;6.97;100.00
36190;BME280;22232;50.914;13.858;2022-11-27T11:45:22;98765.75;;;7.01;100.00
36190;BME280;22232;50.914;13.858;2022-11-27T11:47:57;98763.03;;;6.94;100.00
36190;BME280;22232;50.914;13.858;2022-11-27T11:50:48;98755.31;;;6.99;100.00
36190;BME280;22232;50.914;13.858;2022-11-27T12:07:51;98738.31;;;6.94;100.00
36190;BME280;22232;50.914;13.858;2022-11-27T12:10:37;98746.47;;;6.92;100.00
36190;BME280;22232;50.914;13.858;2022-11-27T12:13:38;98747.38;;;6.99;100.00
36190;BME280;22232;50.914;13.858;2022-11-27T12:27:14;98735.44;;;7.25;100.00
36190;BME280;22232;50.914;13.858;2022-11-27T12:30:31;98731.50;;;7.21;100.00
36190;BME280;22232;50.914;13.858;2022-11-27T12:32:53;98725.66;;;7.25;100.00
36190;BME280;22232;50.914;13.858;2022-11-27T12:35:43;98727.28;;;7.26;100.00
36190;BME280;22232;50.914;13.858;2022-11-27T12:41:08;98720.72;;;7.22;100.00
36190;BME280;22232;50.914;13.858;2022-11-27T12:44:00;98715.03;;;7.25;100.00
36190;BME280;22232;50.914;13.858;2022-11-27T12:46:53;98718.72;;;7.24;100.00
36190;BME280;22232;50.914;13.858;2022-11-27T12:49:30;98710.38;;;7.27;100.00
36190;BME280;22232;50.914;13.858;2022-11-27T12:54:45;98705.00;;;7.06;100.00
36190;BME280;22232;50.914;13.858;2022-11-27T12:57:37;98702.03;;;6.94;100.00
36190;BME280;22232;50.914;13.858;2022-11-27T13:00:17;98697.63;;;7.01;100.00
36190;BME280;22232;50.914;13.858;2022-11-27T13:05:42;98685.03;;;6.74;100.00
36190;BME280;22232;50.914;13.858;2022-11-27T13:08:16;98684.59;;;6.70;100.00
36190;BME280;22232;50.914;13.858;2022-11-27T13:10:54;98684.75;;;6.54;100.00
36190;BME280;22232;50.914;13.858;2022-11-27T13:13:31;98681.38;;;6.45;100.00
36190;BME280;22232;50.914;13.858;2022-11-27T13:16:04;98686.97;;;6.50;100.00
36190;BME280;22232;50.914;13.858;2022-11-27T13:18:38;98678.63;;;6.38;100.00
36190;BME280;22232;50.914;13.858;2022-11-27T13:21:11;98668.50;;;6.27;100.00
36190;BME280;22232;50.914;13.858;2022-11-27T13:23:40;98650.41;;;6.16;100.00
36190;BME280;22232;50.914;13.858;2022-11-27T13:26:14;98650.41;;;6.16;100.00
36190;BME280;22232;50.914;13.858;2022-11-27T13:28:55;98651.78;;;6.12;100.00
36190;BME280;22232;50.914;13.858;2022-11-27T13:31:30;98649.13;;;6.12;100.00
36190;BME280;22232;50.914;13.858;2022-11-27T13:34:02;98653.84;;;6.02;100.00
36190;BME280;22232;50.914;13.858;2022-11-27T13:36:38;98649.16;;;5.89;100.00
36190;BME280;22232;50.914;13.858;2022-11-27T13:39:14;98642.94;;;5.82;100.00
36190;BME280;22232;50.914;13.858;2022-11-27T13:41:48;98642.72;;;5.68;100.00
36190;BME280;22232;50.914;13.858;2022-11-27T13:44:27;98637.06;;;5.71;100.00
36190;BME280;22232;50.914;13.858;2022-11-27T13:46:58;98634.19;;;5.58;100.00
36190;BME280;22232;50.914;13.858;2022-11-27T13:49:30;98623.97;;;5.55;100.00
36190;BME280;22232;50.914;13.858;2022-11-27T13:52:07;98628.84;;;5.43;100.00
36190;BME280;22232;50.914;13.858;2022-11-27T13:54:36;98620.09;;;5.43;100.00
36190;BME280;22232;50.914;13.858;2022-11-27T13:57:12;98617.81;;;5.40;100.00
36190;BME280;22232;50.914;13.858;2022-11-27T13:59:40;98622.53;;;5.29;100.00
36190;BME280;22232;50.914;13.858;2022-11-27T14:02:08;98618.78;;;5.24;100.00
36190;BME280;22232;50.914;13.858;2022-11-27T14:04:50;98612.31;;;5.26;100.00
36190;BME280;22232;50.914;13.858;2022-11-27T14:07:23;98619.63;;;5.16;100.00
36190;BME280;22232;50.914;13.858;2022-11-27T14:10:16;98623.78;;;5.11;100.00
36190;BME280;22232;50.914;13.858;2022-11-27T14:12:56;98622.50;;;5.06;100.00
36190;BME280;22232;50.914;13.858;2022-11-27T14:15:29;98624.69;;;5.03;100.00
36190;BME280;22232;50.914;13.858;2022-11-27T14:20:49;98624.41;;;4.90;100.00
36190;BME280;22232;50.914;13.858;2022-11-27T14:23:33;98623.00;;;4.79;100.00
36190;BME280;22232;50.914;13.858;2022-11-27T14:26:05;98610.63;;;4.79;100.00
36190;BME280;22232;50.914;13.858;2022-11-27T14:28:45;98616.94;;;4.70;100.00
36190;BME280;22232;50.914;13.858;2022-11-27T14:31:35;98614.31;;;4.62;100.00
36190;BME280;22232;50.914;13.858;2022-11-27T14:34:02;98609.22;;;4.60;100.00
36190;BME280;22232;50.914;13.858;2022-11-27T14:36:51;98609.25;;;4.52;100.00
36190;BME280;22232;50.914;13.858;2022-11-27T14:39:37;98604.66;;;4.46;100.00
36190;BME280;22232;50.914;13.858;2022-11-27T14:42:06;98598.25;;;4.41;100.00
36190;BME280;22232;50.914;13.858;2022-11-27T14:44:34;98589.72;;;4.30;100.00